»·PEaware :: AAL1588 KLAX-KSFO

AAL1588 :: KLAX-KSFO

FLIGHT INFORMATION

Flight Status: Arrived
Operator:
American Airlines
More flights by this operator :: More flights under this callsign
Pilot: Jonathan O. (14851)
Aircraft: CANADAIR CL-600 CRJ-700
(CRJ7)
More flights by this aircraft type
Origin: KLAX Los Angeles Intl
United States
Destination: KSFO San Francisco Intl
United States
More flights between these airports :: More routes between these airports
Route: SUMMR2 STOKD SERFR WWAVS1
File this flight plan on PilotEdge
Remarks: RMK / SIMBRIEF
Altitude:
(Current/Filed)
34,000ft
Speed:
(Current/Filed)
431kts
Departed: 18-Sep-22 06:22 PM
Arrived: 18-Sep-22 07:24 PM
Distance/Time
Traveled:
293nm/1:02
Distance/Time
To Go:
Arrived

Flight Plot

Page will automatically refresh every two minutes.

Flight plan parsing failed; only flown route is shown


Map Options




Map Legend


Flown Route
Filed Route
Departure Airport
Arrival Airport
Navaid (VOR, NDB)
Fix

Horizontal Profiles

Position Reports

Time Latitude Longitude Heading Altitude Ground
Speed
18-Sep-22 17:42 33.940336 -118.397661 85 123ft 0kts
18-Sep-22 17:43 33.940336 -118.397661 85 123ft 0kts
18-Sep-22 17:44 33.940336 -118.397661 85 123ft 0kts
18-Sep-22 17:45 33.940336 -118.397661 85 123ft 0kts
18-Sep-22 17:46 33.940336 -118.397661 85 123ft 0kts
18-Sep-22 17:47 33.940336 -118.397661 85 123ft 0kts
18-Sep-22 17:48 33.940336 -118.397661 85 123ft 0kts
18-Sep-22 17:49 33.940336 -118.397661 85 123ft 0kts
18-Sep-22 17:50 33.940336 -118.397661 85 123ft 0kts
18-Sep-22 17:51 33.940336 -118.397661 85 123ft 0kts
18-Sep-22 17:52 33.940336 -118.397661 85 123ft 0kts
18-Sep-22 17:53 33.940336 -118.397661 85 123ft 0kts
18-Sep-22 17:54 33.940336 -118.397661 85 123ft 0kts
18-Sep-22 17:55 33.940336 -118.397661 85 123ft 0kts
18-Sep-22 17:56 33.940336 -118.397661 85 123ft 0kts
18-Sep-22 17:57 33.940336 -118.397661 85 123ft 0kts
18-Sep-22 17:58 33.940336 -118.397661 85 123ft 0kts
18-Sep-22 17:59 33.940336 -118.397661 85 123ft 0kts
18-Sep-22 18:00 33.940336 -118.397661 85 123ft 0kts
18-Sep-22 18:01 33.940336 -118.397661 85 123ft 0kts
18-Sep-22 18:02 33.940336 -118.397661 85 123ft 0kts
18-Sep-22 18:03 33.940318 -118.397972 96 122ft 2kts
18-Sep-22 18:04 33.940543 -118.398311 163 120ft 0kts
18-Sep-22 18:05 33.940543 -118.398311 163 120ft 0kts
18-Sep-22 18:06 33.940543 -118.398311 163 120ft 0kts
18-Sep-22 18:07 33.940543 -118.398311 163 120ft 0kts
18-Sep-22 18:08 33.940543 -118.398311 163 120ft 0kts
18-Sep-22 18:09 33.940543 -118.398311 163 120ft 0kts
18-Sep-22 18:10 33.940543 -118.398311 163 120ft 0kts
18-Sep-22 18:11 33.940543 -118.398311 163 120ft 0kts
18-Sep-22 18:12 33.940543 -118.398311 163 120ft 0kts
18-Sep-22 18:13 33.940081 -118.398213 173 121ft 8kts
18-Sep-22 18:14 33.939283 -118.395127 82 122ft 17kts
18-Sep-22 18:15 33.939941 -118.388583 83 123ft 21kts
18-Sep-22 18:16 33.940694 -118.381293 81 122ft 14kts
18-Sep-22 18:17 33.940767 -118.380384 103 123ft 0kts
18-Sep-22 18:18 33.940767 -118.380384 103 123ft 0kts
18-Sep-22 18:19 33.940767 -118.380384 103 123ft 0kts
18-Sep-22 18:20 33.939850 -118.380430 256 121ft 2kts
18-Sep-22 18:21 33.935011 -118.419866 261 1745ft 169kts
18-Sep-22 18:22 33.928857 -118.492749 264 4213ft 255kts
18-Sep-22 18:23 33.921693 -118.581783 264 7732ft 275kts
18-Sep-22 18:24 33.916428 -118.675910 270 11029ft 289kts
18-Sep-22 18:25 33.917330 -118.785489 269 12331ft 372kts
18-Sep-22 18:26 33.918376 -118.906447 272 16529ft 364kts
18-Sep-22 18:27 33.929485 -119.029768 294 19395ft 381kts
18-Sep-22 18:28 33.986085 -119.140580 303 21966ft 397kts
18-Sep-22 18:29 34.064162 -119.236149 326 24191ft 411kts
18-Sep-22 18:30 34.160288 -119.314505 323 26171ft 424kts
18-Sep-22 18:31 34.257701 -119.399266 324 27915ft 436kts
18-Sep-22 18:32 34.357389 -119.485338 324 29397ft 446kts
18-Sep-22 18:33 34.453683 -119.582158 313 30556ft 456kts
18-Sep-22 18:34 34.542787 -119.694760 314 31535ft 465kts
18-Sep-22 18:35 34.633338 -119.806336 314 33110ft 455kts
18-Sep-22 18:36 34.722363 -119.916620 314 33965ft 463kts
18-Sep-22 18:37 34.813821 -120.029989 314 34010ft 469kts
18-Sep-22 18:38 34.900124 -120.137453 314 33991ft 430kts
18-Sep-22 18:39 34.986358 -120.245449 314 34020ft 458kts
18-Sep-22 18:40 35.074885 -120.356716 313 34010ft 454kts
18-Sep-22 18:41 35.166245 -120.461140 318 34006ft 447kts
18-Sep-22 18:42 35.257618 -120.563104 317 34005ft 444kts
18-Sep-22 18:43 35.347413 -120.666182 316 34010ft 441kts
18-Sep-22 18:44 35.440067 -120.768718 317 34014ft 459kts
18-Sep-22 18:45 35.537236 -120.870156 323 34129ft 448kts
18-Sep-22 18:46 35.635946 -120.958911 322 34009ft 438kts
18-Sep-22 18:47 35.735547 -121.052254 322 34027ft 460kts
18-Sep-22 18:48 35.835520 -121.145587 322 34024ft 433kts
18-Sep-22 18:49 35.935068 -121.238819 322 33319ft 469kts
18-Sep-22 18:50 36.034254 -121.332299 322 30902ft 446kts
18-Sep-22 18:51 36.133743 -121.417392 329 28517ft 431kts
18-Sep-22 18:52 36.235423 -121.494645 327 26220ft 410kts
18-Sep-22 18:54 36.331217 -121.569866 327 23948ft 405kts
18-Sep-22 18:55 36.424817 -121.643605 327 21689ft 385kts
18-Sep-22 18:56 36.513227 -121.713622 327 19994ft 360kts
18-Sep-22 18:57 36.599817 -121.781861 326 18263ft 378kts
18-Sep-22 18:58 36.687001 -121.850915 327 16312ft 351kts
18-Sep-22 18:59 36.765425 -121.916665 320 15008ft 334kts
18-Sep-22 19:00 36.832045 -121.988869 318 14293ft 303kts
18-Sep-22 19:01 36.896532 -122.056861 319 13684ft 300kts
18-Sep-22 19:02 36.961432 -122.125342 319 13008ft 297kts
18-Sep-22 19:03 37.024628 -122.192326 319 12366ft 298kts
18-Sep-22 19:04 37.087813 -122.259325 319 11705ft 296kts
18-Sep-22 19:05 37.158151 -122.308988 345 10701ft 303kts
18-Sep-22 19:06 37.237242 -122.332825 345 10135ft 292kts
18-Sep-22 19:07 37.315265 -122.359479 344 9692ft 289kts
18-Sep-22 19:08 37.389917 -122.385242 344 9254ft 284kts
18-Sep-22 19:09 37.463110 -122.410492 344 8710ft 271kts
18-Sep-22 19:10 37.536005 -122.436451 344 8078ft 267kts
18-Sep-22 19:11 37.602069 -122.458882 344 7032ft 229kts
18-Sep-22 19:12 37.664269 -122.479717 354 6355ft 227kts
18-Sep-22 19:13 37.719045 -122.462150 18 6524ft 198kts
18-Sep-22 19:14 37.760584 -122.421728 50 5133ft 207kts
18-Sep-22 19:15 37.803338 -122.383625 33 4291ft 172kts
18-Sep-22 19:16 37.843400 -122.348544 51 3423ft 174kts
18-Sep-22 19:17 37.839185 -122.291713 102 3275ft 177kts
18-Sep-22 19:18 37.814574 -122.251840 184 3294ft 170kts
18-Sep-22 19:19 37.770166 -122.272366 206 3224ft 178kts
18-Sep-22 19:19 37.738098 -122.293568 209 2397ft 135kts
18-Sep-22 19:21 37.698520 -122.319979 208 1643ft 141kts
18-Sep-22 19:22 37.663498 -122.343175 208 830ft 133kts
18-Sep-22 19:23 37.629830 -122.365330 209 112ft 133kts
18-Sep-22 19:24 37.612969 -122.378004 279 15ft 0kts
18-Sep-22 19:24 37.612974 -122.378042 278 15ft 1kts
18-Sep-22 19:25 37.613820 -122.380333 298 13ft 8kts
18-Sep-22 19:26 37.615134 -122.381855 258 12ft 0kts
18-Sep-22 19:28 37.615134 -122.381855 258 12ft 0kts
18-Sep-22 19:29 37.615134 -122.381855 258 12ft 0kts

Navigation Log

Ident Type
Flight plan parsing failed, navigation log unavailable